Terminal Aerodrome Forecast
Issued by NWS

Home | Current Version | Previous Version | Text Only | Print | Product List | Glossary On
Versions: 1 2 3 4 5 6 7 8 9 10 11 12
864
FTPA31 PHFO 111120
TAFHOG
TAF
PHOG 111120Z 1112/1212 05007KT P6SM FEW050
     FM112000 05016G22KT P6SM FEW050
     FM120500 05012KT P6SM FEW050=

USA.gov is the U.S. government's official web portal to all federal, state and local government web resources and services.